Terminal Aerodrome Forecast
Issued by NWS Salt Lake City, UT

Home | Current Version | Previous Version | Text Only | Print | Product List | Glossary On
Versions: 1 2 3 4 5 6 7 8 9 10 11 12 13 14 15 16 17 18 19 20 21 22 23 24 25 26 27 28 29 30 31 32 33 34 35 36 37 38
000
FTUS45 KSLC 211507 AAB
TAFSLC
TAF AMD
KSLC 211507Z 2115/2218 31008KT 1SM -SN BKN005 OVC015
     FM211800 30008KT 2SM -SN BKN006 OVC010
     FM212100 33009KT P6SM VCSH SCT020 BKN040
     FM220300 16006KT P6SM SCT040 BKN080=

USA.gov is the U.S. government's official web portal to all federal, state and local government web resources and services.